sensor_id;sensor_type;location;lat;lon;timestamp;P1;durP1;ratioP1;P2;durP2;ratioP2
81150;SDS011;70629;-26.026;27.976;2023-06-22T00:01:29;21.73;;;11.50;;
81150;SDS011;70629;-26.026;27.976;2023-06-22T00:03:58;19.60;;;11.38;;
81150;SDS011;70629;-26.026;27.976;2023-06-22T00:06:27;18.17;;;11.73;;
81150;SDS011;70629;-26.026;27.976;2023-06-22T00:08:56;19.60;;;12.57;;
81150;SDS011;70629;-26.026;27.976;2023-06-22T00:11:25;21.27;;;12.60;;
81150;SDS011;70629;-26.026;27.976;2023-06-22T00:13:55;22.23;;;13.68;;
81150;SDS011;70629;-26.026;27.976;2023-06-22T00:16:25;21.05;;;13.60;;
81150;SDS011;70629;-26.026;27.976;2023-06-22T00:18:54;22.77;;;13.60;;
81150;SDS011;70629;-26.026;27.976;2023-06-22T00:21:23;22.30;;;14.20;;
81150;SDS011;70629;-26.026;27.976;2023-06-22T00:23:52;21.13;;;12.52;;
81150;SDS011;70629;-26.026;27.976;2023-06-22T00:26:21;21.42;;;11.52;;
81150;SDS011;70629;-26.026;27.976;2023-06-22T00:28:50;23.40;;;11.30;;
81150;SDS011;70629;-26.026;27.976;2023-06-22T00:31:19;15.75;;;11.32;;
81150;SDS011;70629;-26.026;27.976;2023-06-22T00:33:48;24.77;;;11.63;;
81150;SDS011;70629;-26.026;27.976;2023-06-22T00:36:18;18.30;;;10.75;;
81150;SDS011;70629;-26.026;27.976;2023-06-22T00:38:47;20.50;;;11.10;;
81150;SDS011;70629;-26.026;27.976;2023-06-22T00:41:18;21.25;;;10.48;;
81150;SDS011;70629;-26.026;27.976;2023-06-22T00:43:47;17.67;;;9.55;;
81150;SDS011;70629;-26.026;27.976;2023-06-22T00:46:16;15.38;;;9.20;;
81150;SDS011;70629;-26.026;27.976;2023-06-22T00:48:45;18.25;;;10.25;;
81150;SDS011;70629;-26.026;27.976;2023-06-22T00:51:14;15.65;;;9.55;;
81150;SDS011;70629;-26.026;27.976;2023-06-22T00:53:44;13.32;;;7.70;;
81150;SDS011;70629;-26.026;27.976;2023-06-22T00:56:14;13.23;;;7.63;;
81150;SDS011;70629;-26.026;27.976;2023-06-22T00:58:47;11.25;;;7.05;;
81150;SDS011;70629;-26.026;27.976;2023-06-22T01:01:16;17.88;;;8.07;;
81150;SDS011;70629;-26.026;27.976;2023-06-22T01:03:45;12.52;;;7.20;;
81150;SDS011;70629;-26.026;27.976;2023-06-22T01:06:15;12.20;;;7.63;;
81150;SDS011;70629;-26.026;27.976;2023-06-22T01:09:02;12.10;;;7.07;;
81150;SDS011;70629;-26.026;27.976;2023-06-22T01:11:54;11.85;;;6.13;;
81150;SDS011;70629;-26.026;27.976;2023-06-22T01:15:16;11.55;;;6.20;;
81150;SDS011;70629;-26.026;27.976;2023-06-22T01:17:30;15.98;;;6.40;;
81150;SDS011;70629;-26.026;27.976;2023-06-22T01:20:00;11.43;;;6.10;;
81150;SDS011;70629;-26.026;27.976;2023-06-22T01:22:33;16.17;;;7.82;;
81150;SDS011;70629;-26.026;27.976;2023-06-22T01:25:13;11.15;;;6.88;;
81150;SDS011;70629;-26.026;27.976;2023-06-22T01:27:59;13.85;;;7.00;;
81150;SDS011;70629;-26.026;27.976;2023-06-22T01:30:52;10.98;;;6.82;;
81150;SDS011;70629;-26.026;27.976;2023-06-22T01:33:34;16.92;;;7.68;;
81150;SDS011;70629;-26.026;27.976;2023-06-22T01:36:07;15.38;;;7.32;;
81150;SDS011;70629;-26.026;27.976;2023-06-22T01:38:38;10.70;;;6.57;;
81150;SDS011;70629;-26.026;27.976;2023-06-22T01:41:07;14.77;;;7.25;;
81150;SDS011;70629;-26.026;27.976;2023-06-22T01:43:37;13.20;;;7.82;;
81150;SDS011;70629;-26.026;27.976;2023-06-22T01:46:07;11.25;;;6.32;;
81150;SDS011;70629;-26.026;27.976;2023-06-22T01:48:37;14.05;;;6.47;;
81150;SDS011;70629;-26.026;27.976;2023-06-22T01:51:07;11.38;;;6.72;;
81150;SDS011;70629;-26.026;27.976;2023-06-22T01:53:36;11.23;;;6.30;;
81150;SDS011;70629;-26.026;27.976;2023-06-22T01:56:06;12.48;;;6.07;;
81150;SDS011;70629;-26.026;27.976;2023-06-22T01:58:35;11.65;;;6.22;;
81150;SDS011;70629;-26.026;27.976;2023-06-22T02:03:43;10.35;;;5.40;;
81150;SDS011;70629;-26.026;27.976;2023-06-22T02:06:18;10.98;;;6.18;;
81150;SDS011;70629;-26.026;27.976;2023-06-22T02:08:55;9.35;;;5.38;;
81150;SDS011;70629;-26.026;27.976;2023-06-22T02:11:28;8.23;;;6.13;;
81150;SDS011;70629;-26.026;27.976;2023-06-22T02:13:59;11.23;;;5.50;;
81150;SDS011;70629;-26.026;27.976;2023-06-22T02:16:30;9.02;;;5.45;;
81150;SDS011;70629;-26.026;27.976;2023-06-22T02:19:00;10.20;;;5.80;;
81150;SDS011;70629;-26.026;27.976;2023-06-22T02:21:34;15.85;;;5.55;;
81150;SDS011;70629;-26.026;27.976;2023-06-22T02:24:03;10.32;;;5.32;;
81150;SDS011;70629;-26.026;27.976;2023-06-22T02:26:33;10.18;;;5.53;;
81150;SDS011;70629;-26.026;27.976;2023-06-22T02:29:02;9.80;;;5.38;;
81150;SDS011;70629;-26.026;27.976;2023-06-22T02:31:31;15.07;;;5.80;;
81150;SDS011;70629;-26.026;27.976;2023-06-22T02:34:00;11.50;;;6.07;;
81150;SDS011;70629;-26.026;27.976;2023-06-22T02:36:29;12.05;;;5.75;;
81150;SDS011;70629;-26.026;27.976;2023-06-22T02:38:58;10.63;;;5.40;;
81150;SDS011;70629;-26.026;27.976;2023-06-22T02:41:29;13.75;;;5.68;;
81150;SDS011;70629;-26.026;27.976;2023-06-22T02:43:59;9.40;;;5.47;;
81150;SDS011;70629;-26.026;27.976;2023-06-22T02:46:28;12.85;;;6.25;;
81150;SDS011;70629;-26.026;27.976;2023-06-22T02:48:57;11.60;;;5.32;;
81150;SDS011;70629;-26.026;27.976;2023-06-22T02:51:26;9.10;;;5.30;;
81150;SDS011;70629;-26.026;27.976;2023-06-22T02:53:55;10.20;;;4.82;;
81150;SDS011;70629;-26.026;27.976;2023-06-22T02:56:25;8.57;;;5.55;;
81150;SDS011;70629;-26.026;27.976;2023-06-22T02:58:54;11.77;;;5.60;;
81150;SDS011;70629;-26.026;27.976;2023-06-22T03:01:28;12.38;;;5.72;;
81150;SDS011;70629;-26.026;27.976;2023-06-22T03:03:58;10.38;;;5.50;;
81150;SDS011;70629;-26.026;27.976;2023-06-22T03:06:28;9.35;;;5.13;;
81150;SDS011;70629;-26.026;27.976;2023-06-22T03:09:00;7.72;;;5.45;;
81150;SDS011;70629;-26.026;27.976;2023-06-22T03:11:33;10.68;;;5.60;;
81150;SDS011;70629;-26.026;27.976;2023-06-22T03:14:02;13.45;;;6.72;;
81150;SDS011;70629;-26.026;27.976;2023-06-22T03:16:32;9.82;;;5.32;;
81150;SDS011;70629;-26.026;27.976;2023-06-22T03:19:01;9.00;;;5.60;;
81150;SDS011;70629;-26.026;27.976;2023-06-22T03:21:30;10.85;;;5.60;;
81150;SDS011;70629;-26.026;27.976;2023-06-22T03:24:00;11.20;;;6.97;;
81150;SDS011;70629;-26.026;27.976;2023-06-22T03:26:29;13.75;;;5.90;;
81150;SDS011;70629;-26.026;27.976;2023-06-22T03:28:58;12.48;;;6.80;;
81150;SDS011;70629;-26.026;27.976;2023-06-22T03:31:27;9.40;;;6.43;;
81150;SDS011;70629;-26.026;27.976;2023-06-22T03:33:56;11.38;;;6.82;;
81150;SDS011;70629;-26.026;27.976;2023-06-22T03:36:26;12.15;;;6.60;;
81150;SDS011;70629;-26.026;27.976;2023-06-22T03:38:54;8.88;;;6.07;;
81150;SDS011;70629;-26.026;27.976;2023-06-22T03:41:24;14.10;;;6.60;;
81150;SDS011;70629;-26.026;27.976;2023-06-22T03:43:53;14.43;;;7.15;;
81150;SDS011;70629;-26.026;27.976;2023-06-22T03:46:22;12.70;;;6.55;;
81150;SDS011;70629;-26.026;27.976;2023-06-22T03:48:51;11.55;;;6.40;;
81150;SDS011;70629;-26.026;27.976;2023-06-22T03:51:21;12.25;;;7.10;;
81150;SDS011;70629;-26.026;27.976;2023-06-22T03:53:51;10.85;;;6.97;;
81150;SDS011;70629;-26.026;27.976;2023-06-22T03:56:20;15.18;;;7.80;;
81150;SDS011;70629;-26.026;27.976;2023-06-22T03:58:49;12.30;;;7.43;;
81150;SDS011;70629;-26.026;27.976;2023-06-22T04:01:18;15.02;;;8.00;;
81150;SDS011;70629;-26.026;27.976;2023-06-22T04:03:47;15.57;;;8.02;;
81150;SDS011;70629;-26.026;27.976;2023-06-22T04:06:17;13.68;;;7.72;;
81150;SDS011;70629;-26.026;27.976;2023-06-22T04:08:47;13.90;;;7.63;;
81150;SDS011;70629;-26.026;27.976;2023-06-22T04:11:19;14.27;;;7.22;;
81150;SDS011;70629;-26.026;27.976;2023-06-22T04:13:48;14.15;;;7.32;;
81150;SDS011;70629;-26.026;27.976;2023-06-22T04:16:19;13.38;;;8.48;;
81150;SDS011;70629;-26.026;27.976;2023-06-22T04:18:48;15.40;;;8.52;;
81150;SDS011;70629;-26.026;27.976;2023-06-22T04:21:17;11.60;;;8.10;;
81150;SDS011;70629;-26.026;27.976;2023-06-22T04:23:47;18.73;;;7.93;;
81150;SDS011;70629;-26.026;27.976;2023-06-22T04:26:17;13.73;;;9.38;;
81150;SDS011;70629;-26.026;27.976;2023-06-22T04:28:48;17.90;;;10.45;;
81150;SDS011;70629;-26.026;27.976;2023-06-22T04:31:19;15.20;;;8.68;;
81150;SDS011;70629;-26.026;27.976;2023-06-22T04:33:49;18.25;;;9.32;;
81150;SDS011;70629;-26.026;27.976;2023-06-22T04:36:19;13.95;;;9.38;;
81150;SDS011;70629;-26.026;27.976;2023-06-22T04:38:52;15.82;;;9.38;;
81150;SDS011;70629;-26.026;27.976;2023-06-22T04:41:21;12.93;;;8.90;;
81150;SDS011;70629;-26.026;27.976;2023-06-22T04:43:51;13.55;;;8.23;;
81150;SDS011;70629;-26.026;27.976;2023-06-22T04:46:22;17.50;;;9.75;;
81150;SDS011;70629;-26.026;27.976;2023-06-22T04:48:51;14.95;;;8.55;;
81150;SDS011;70629;-26.026;27.976;2023-06-22T04:51:20;13.65;;;9.40;;
81150;SDS011;70629;-26.026;27.976;2023-06-22T04:53:49;16.55;;;9.02;;
81150;SDS011;70629;-26.026;27.976;2023-06-22T04:56:18;19.25;;;9.77;;
81150;SDS011;70629;-26.026;27.976;2023-06-22T04:58:49;21.35;;;9.63;;
81150;SDS011;70629;-26.026;27.976;2023-06-22T05:01:19;18.13;;;9.60;;
81150;SDS011;70629;-26.026;27.976;2023-06-22T05:03:50;19.23;;;10.60;;
81150;SDS011;70629;-26.026;27.976;2023-06-22T05:06:24;14.90;;;8.75;;
81150;SDS011;70629;-26.026;27.976;2023-06-22T05:08:56;14.70;;;9.30;;
81150;SDS011;70629;-26.026;27.976;2023-06-22T05:11:26;19.08;;;9.95;;
81150;SDS011;70629;-26.026;27.976;2023-06-22T05:13:56;17.90;;;10.38;;
81150;SDS011;70629;-26.026;27.976;2023-06-22T05:16:25;14.82;;;9.45;;
81150;SDS011;70629;-26.026;27.976;2023-06-22T05:18:54;17.27;;;9.27;;
81150;SDS011;70629;-26.026;27.976;2023-06-22T05:21:25;21.90;;;10.85;;
81150;SDS011;70629;-26.026;27.976;2023-06-22T05:23:55;18.38;;;10.32;;
81150;SDS011;70629;-26.026;27.976;2023-06-22T05:26:28;22.13;;;10.75;;
81150;SDS011;70629;-26.026;27.976;2023-06-22T05:28:59;20.65;;;11.35;;
81150;SDS011;70629;-26.026;27.976;2023-06-22T05:31:29;16.42;;;10.85;;
81150;SDS011;70629;-26.026;27.976;2023-06-22T05:33:58;17.42;;;11.70;;
81150;SDS011;70629;-26.026;27.976;2023-06-22T05:36:28;22.02;;;10.95;;
81150;SDS011;70629;-26.026;27.976;2023-06-22T05:38:57;22.80;;;11.77;;
81150;SDS011;70629;-26.026;27.976;2023-06-22T05:41:26;19.85;;;10.60;;
81150;SDS011;70629;-26.026;27.976;2023-06-22T05:43:56;19.48;;;10.88;;
81150;SDS011;70629;-26.026;27.976;2023-06-22T05:46:25;18.02;;;11.40;;
81150;SDS011;70629;-26.026;27.976;2023-06-22T05:48:54;16.63;;;10.48;;
81150;SDS011;70629;-26.026;27.976;2023-06-22T05:51:23;20.23;;;10.70;;
81150;SDS011;70629;-26.026;27.976;2023-06-22T05:53:53;19.27;;;11.82;;
81150;SDS011;70629;-26.026;27.976;2023-06-22T05:56:22;22.90;;;12.13;;
81150;SDS011;70629;-26.026;27.976;2023-06-22T05:58:51;19.73;;;11.40;;
81150;SDS011;70629;-26.026;27.976;2023-06-22T06:01:21;20.02;;;11.40;;
81150;SDS011;70629;-26.026;27.976;2023-06-22T06:03:50;18.75;;;11.55;;
81150;SDS011;70629;-26.026;27.976;2023-06-22T06:06:20;19.48;;;12.00;;
81150;SDS011;70629;-26.026;27.976;2023-06-22T06:08:52;29.25;;;12.32;;
81150;SDS011;70629;-26.026;27.976;2023-06-22T06:11:22;24.70;;;12.50;;
81150;SDS011;70629;-26.026;27.976;2023-06-22T06:13:51;22.40;;;11.60;;
81150;SDS011;70629;-26.026;27.976;2023-06-22T06:16:21;25.35;;;13.10;;
81150;SDS011;70629;-26.026;27.976;2023-06-22T06:18:50;18.60;;;12.88;;
81150;SDS011;70629;-26.026;27.976;2023-06-22T06:21:21;26.50;;;15.63;;
81150;SDS011;70629;-26.026;27.976;2023-06-22T06:23:51;28.33;;;16.27;;
81150;SDS011;70629;-26.026;27.976;2023-06-22T06:26:21;28.88;;;16.50;;
81150;SDS011;70629;-26.026;27.976;2023-06-22T06:28:56;33.92;;;19.85;;
81150;SDS011;70629;-26.026;27.976;2023-06-22T06:31:26;34.92;;;19.33;;
81150;SDS011;70629;-26.026;27.976;2023-06-22T06:33:56;72.20;;;30.88;;
81150;SDS011;70629;-26.026;27.976;2023-06-22T06:36:26;56.25;;;24.75;;
81150;SDS011;70629;-26.026;27.976;2023-06-22T06:38:55;56.05;;;23.88;;
81150;SDS011;70629;-26.026;27.976;2023-06-22T06:41:24;44.15;;;21.30;;
81150;SDS011;70629;-26.026;27.976;2023-06-22T06:43:54;38.58;;;20.77;;
81150;SDS011;70629;-26.026;27.976;2023-06-22T06:46:23;39.30;;;19.33;;
81150;SDS011;70629;-26.026;27.976;2023-06-22T06:48:52;37.45;;;19.00;;
81150;SDS011;70629;-26.026;27.976;2023-06-22T06:51:21;33.47;;;21.90;;
81150;SDS011;70629;-26.026;27.976;2023-06-22T06:53:51;36.60;;;22.42;;
81150;SDS011;70629;-26.026;27.976;2023-06-22T06:56:20;47.38;;;27.10;;
81150;SDS011;70629;-26.026;27.976;2023-06-22T06:58:50;52.47;;;27.98;;
81150;SDS011;70629;-26.026;27.976;2023-06-22T07:01:19;42.85;;;26.33;;
81150;SDS011;70629;-26.026;27.976;2023-06-22T07:03:50;60.45;;;31.10;;
81150;SDS011;70629;-26.026;27.976;2023-06-22T07:08:50;41.17;;;22.35;;
81150;SDS011;70629;-26.026;27.976;2023-06-22T07:11:19;36.10;;;20.77;;
81150;SDS011;70629;-26.026;27.976;2023-06-22T07:13:49;34.65;;;20.80;;
81150;SDS011;70629;-26.026;27.976;2023-06-22T07:16:18;33.20;;;20.20;;
81150;SDS011;70629;-26.026;27.976;2023-06-22T07:18:47;39.33;;;19.80;;
81150;SDS011;70629;-26.026;27.976;2023-06-22T07:21:20;35.38;;;20.45;;
81150;SDS011;70629;-26.026;27.976;2023-06-22T07:23:51;37.75;;;21.23;;
81150;SDS011;70629;-26.026;27.976;2023-06-22T07:26:22;39.13;;;22.23;;
81150;SDS011;70629;-26.026;27.976;2023-06-22T07:28:53;37.72;;;22.40;;
81150;SDS011;70629;-26.026;27.976;2023-06-22T07:31:24;35.58;;;20.88;;
81150;SDS011;70629;-26.026;27.976;2023-06-22T07:33:54;31.23;;;17.65;;
81150;SDS011;70629;-26.026;27.976;2023-06-22T07:36:23;33.88;;;18.23;;
81150;SDS011;70629;-26.026;27.976;2023-06-22T07:38:52;31.88;;;18.20;;
81150;SDS011;70629;-26.026;27.976;2023-06-22T07:41:22;28.90;;;16.20;;
81150;SDS011;70629;-26.026;27.976;2023-06-22T07:43:53;32.63;;;17.13;;
81150;SDS011;70629;-26.026;27.976;2023-06-22T07:46:23;35.08;;;16.83;;
81150;SDS011;70629;-26.026;27.976;2023-06-22T07:48:52;27.23;;;16.08;;
81150;SDS011;70629;-26.026;27.976;2023-06-22T07:51:23;25.55;;;16.02;;
81150;SDS011;70629;-26.026;27.976;2023-06-22T07:53:52;20.67;;;14.75;;
81150;SDS011;70629;-26.026;27.976;2023-06-22T07:56:21;20.55;;;14.43;;
81150;SDS011;70629;-26.026;27.976;2023-06-22T07:58:53;25.42;;;13.43;;
81150;SDS011;70629;-26.026;27.976;2023-06-22T08:01:23;22.83;;;13.25;;
81150;SDS011;70629;-26.026;27.976;2023-06-22T08:03:54;20.67;;;11.48;;
81150;SDS011;70629;-26.026;27.976;2023-06-22T08:06:23;18.83;;;12.02;;
81150;SDS011;70629;-26.026;27.976;2023-06-22T08:08:53;24.98;;;13.20;;
81150;SDS011;70629;-26.026;27.976;2023-06-22T08:11:28;21.33;;;13.20;;
81150;SDS011;70629;-26.026;27.976;2023-06-22T08:13:57;22.13;;;13.65;;
81150;SDS011;70629;-26.026;27.976;2023-06-22T08:16:30;24.20;;;13.57;;
81150;SDS011;70629;-26.026;27.976;2023-06-22T08:19:00;20.27;;;12.85;;
81150;SDS011;70629;-26.026;27.976;2023-06-22T08:21:31;96.75;;;37.88;;
81150;SDS011;70629;-26.026;27.976;2023-06-22T08:24:02;51.60;;;23.33;;
81150;SDS011;70629;-26.026;27.976;2023-06-22T08:26:32;29.67;;;17.17;;
81150;SDS011;70629;-26.026;27.976;2023-06-22T08:29:04;21.65;;;13.88;;
81150;SDS011;70629;-26.026;27.976;2023-06-22T08:31:36;20.83;;;13.68;;
81150;SDS011;70629;-26.026;27.976;2023-06-22T08:34:06;19.67;;;12.88;;
81150;SDS011;70629;-26.026;27.976;2023-06-22T08:36:35;22.33;;;13.90;;
81150;SDS011;70629;-26.026;27.976;2023-06-22T08:39:10;18.88;;;11.88;;
81150;SDS011;70629;-26.026;27.976;2023-06-22T08:41:39;15.48;;;11.50;;
81150;SDS011;70629;-26.026;27.976;2023-06-22T08:44:08;19.67;;;10.68;;
81150;SDS011;70629;-26.026;27.976;2023-06-22T08:46:37;14.13;;;9.30;;
81150;SDS011;70629;-26.026;27.976;2023-06-22T08:49:09;21.25;;;10.30;;
81150;SDS011;70629;-26.026;27.976;2023-06-22T08:51:39;14.98;;;9.52;;
81150;SDS011;70629;-26.026;27.976;2023-06-22T08:54:08;15.25;;;10.38;;
81150;SDS011;70629;-26.026;27.976;2023-06-22T08:56:37;16.65;;;9.63;;
81150;SDS011;70629;-26.026;27.976;2023-06-22T08:59:06;15.32;;;8.13;;
81150;SDS011;70629;-26.026;27.976;2023-06-22T09:01:35;15.68;;;8.35;;
81150;SDS011;70629;-26.026;27.976;2023-06-22T09:04:05;15.15;;;8.15;;
81150;SDS011;70629;-26.026;27.976;2023-06-22T09:06:35;12.32;;;7.03;;
81150;SDS011;70629;-26.026;27.976;2023-06-22T09:09:10;9.45;;;6.38;;
81150;SDS011;70629;-26.026;27.976;2023-06-22T09:11:40;12.00;;;5.60;;
81150;SDS011;70629;-26.026;27.976;2023-06-22T09:14:10;8.48;;;4.38;;
81150;SDS011;70629;-26.026;27.976;2023-06-22T09:19:10;6.15;;;2.50;;
81150;SDS011;70629;-26.026;27.976;2023-06-22T09:21:39;5.43;;;2.67;;
81150;SDS011;70629;-26.026;27.976;2023-06-22T09:24:10;7.47;;;2.17;;
81150;SDS011;70629;-26.026;27.976;2023-06-22T09:26:43;4.80;;;1.67;;
81150;SDS011;70629;-26.026;27.976;2023-06-22T09:29:12;5.05;;;2.13;;
81150;SDS011;70629;-26.026;27.976;2023-06-22T09:31:43;6.88;;;2.53;;
81150;SDS011;70629;-26.026;27.976;2023-06-22T09:34:14;5.18;;;2.50;;
81150;SDS011;70629;-26.026;27.976;2023-06-22T09:36:48;5.57;;;2.53;;
81150;SDS011;70629;-26.026;27.976;2023-06-22T09:39:18;7.35;;;2.55;;
81150;SDS011;70629;-26.026;27.976;2023-06-22T09:41:47;8.73;;;2.67;;
81150;SDS011;70629;-26.026;27.976;2023-06-22T09:44:16;7.53;;;2.65;;
81150;SDS011;70629;-26.026;27.976;2023-06-22T09:46:45;3.67;;;1.95;;
81150;SDS011;70629;-26.026;27.976;2023-06-22T09:49:15;7.90;;;3.83;;
81150;SDS011;70629;-26.026;27.976;2023-06-22T09:51:44;10.13;;;5.30;;
81150;SDS011;70629;-26.026;27.976;2023-06-22T09:54:13;8.73;;;5.50;;
81150;SDS011;70629;-26.026;27.976;2023-06-22T09:56:42;8.13;;;4.95;;
81150;SDS011;70629;-26.026;27.976;2023-06-22T09:59:11;11.95;;;6.68;;
81150;SDS011;70629;-26.026;27.976;2023-06-22T10:01:44;11.73;;;5.18;;
81150;SDS011;70629;-26.026;27.976;2023-06-22T10:04:14;11.25;;;5.00;;
81150;SDS011;70629;-26.026;27.976;2023-06-22T10:06:43;13.75;;;6.10;;
81150;SDS011;70629;-26.026;27.976;2023-06-22T10:09:12;15.45;;;6.40;;
81150;SDS011;70629;-26.026;27.976;2023-06-22T10:11:42;13.55;;;6.85;;
81150;SDS011;70629;-26.026;27.976;2023-06-22T10:14:11;11.57;;;6.28;;
81150;SDS011;70629;-26.026;27.976;2023-06-22T10:16:40;10.95;;;6.10;;
81150;SDS011;70629;-26.026;27.976;2023-06-22T10:19:10;11.93;;;5.82;;
81150;SDS011;70629;-26.026;27.976;2023-06-22T10:21:39;10.30;;;6.30;;
81150;SDS011;70629;-26.026;27.976;2023-06-22T10:24:08;11.60;;;6.18;;
81150;SDS011;70629;-26.026;27.976;2023-06-22T10:26:37;17.63;;;6.32;;
81150;SDS011;70629;-26.026;27.976;2023-06-22T10:29:07;8.25;;;5.95;;
81150;SDS011;70629;-26.026;27.976;2023-06-22T10:31:43;9.55;;;6.07;;
81150;SDS011;70629;-26.026;27.976;2023-06-22T10:34:13;10.75;;;6.45;;
81150;SDS011;70629;-26.026;27.976;2023-06-22T10:36:42;9.43;;;5.15;;
81150;SDS011;70629;-26.026;27.976;2023-06-22T10:39:11;8.88;;;5.47;;
81150;SDS011;70629;-26.026;27.976;2023-06-22T10:41:40;9.95;;;5.47;;
81150;SDS011;70629;-26.026;27.976;2023-06-22T10:44:09;8.63;;;5.60;;
81150;SDS011;70629;-26.026;27.976;2023-06-22T10:46:38;9.48;;;5.72;;
81150;SDS011;70629;-26.026;27.976;2023-06-22T10:49:07;8.50;;;5.38;;
81150;SDS011;70629;-26.026;27.976;2023-06-22T10:51:36;10.27;;;5.78;;
81150;SDS011;70629;-26.026;27.976;2023-06-22T10:54:05;12.88;;;5.95;;
81150;SDS011;70629;-26.026;27.976;2023-06-22T10:56:35;9.50;;;5.47;;
81150;SDS011;70629;-26.026;27.976;2023-06-22T10:59:04;9.88;;;6.25;;
81150;SDS011;70629;-26.026;27.976;2023-06-22T11:01:33;10.70;;;5.88;;
81150;SDS011;70629;-26.026;27.976;2023-06-22T11:04:03;9.73;;;5.68;;
81150;SDS011;70629;-26.026;27.976;2023-06-22T11:06:32;9.45;;;5.78;;
81150;SDS011;70629;-26.026;27.976;2023-06-22T11:09:01;11.40;;;5.88;;
81150;SDS011;70629;-26.026;27.976;2023-06-22T11:11:50;7.05;;;5.18;;
81150;SDS011;70629;-26.026;27.976;2023-06-22T11:14:21;8.98;;;5.55;;
81150;SDS011;70629;-26.026;27.976;2023-06-22T11:16:51;9.60;;;5.93;;
81150;SDS011;70629;-26.026;27.976;2023-06-22T11:19:20;12.13;;;5.68;;
81150;SDS011;70629;-26.026;27.976;2023-06-22T11:21:49;10.57;;;5.68;;
81150;SDS011;70629;-26.026;27.976;2023-06-22T11:24:18;13.00;;;6.00;;
81150;SDS011;70629;-26.026;27.976;2023-06-22T11:26:50;12.02;;;6.20;;
81150;SDS011;70629;-26.026;27.976;2023-06-22T11:29:20;12.13;;;6.15;;
81150;SDS011;70629;-26.026;27.976;2023-06-22T11:32:03;8.48;;;6.20;;
81150;SDS011;70629;-26.026;27.976;2023-06-22T11:34:33;13.20;;;7.05;;
81150;SDS011;70629;-26.026;27.976;2023-06-22T11:37:02;12.65;;;7.95;;
81150;SDS011;70629;-26.026;27.976;2023-06-22T11:39:32;12.85;;;6.28;;
81150;SDS011;70629;-26.026;27.976;2023-06-22T11:42:14;10.80;;;6.82;;
81150;SDS011;70629;-26.026;27.976;2023-06-22T11:44:43;13.15;;;7.28;;
81150;SDS011;70629;-26.026;27.976;2023-06-22T11:47:12;16.85;;;9.77;;
81150;SDS011;70629;-26.026;27.976;2023-06-22T11:49:41;13.48;;;7.93;;
81150;SDS011;70629;-26.026;27.976;2023-06-22T11:52:11;23.10;;;11.85;;
81150;SDS011;70629;-26.026;27.976;2023-06-22T11:54:40;13.82;;;8.20;;
81150;SDS011;70629;-26.026;27.976;2023-06-22T11:57:09;10.95;;;8.30;;
81150;SDS011;70629;-26.026;27.976;2023-06-22T11:59:38;14.75;;;8.80;;
81150;SDS011;70629;-26.026;27.976;2023-06-22T12:02:07;14.80;;;8.35;;
81150;SDS011;70629;-26.026;27.976;2023-06-22T12:04:37;12.90;;;8.85;;
81150;SDS011;70629;-26.026;27.976;2023-06-22T12:07:06;12.10;;;7.88;;
81150;SDS011;70629;-26.026;27.976;2023-06-22T12:09:36;14.50;;;9.15;;
81150;SDS011;70629;-26.026;27.976;2023-06-22T12:12:05;14.00;;;8.38;;
81150;SDS011;70629;-26.026;27.976;2023-06-22T12:14:34;11.48;;;7.85;;
81150;SDS011;70629;-26.026;27.976;2023-06-22T12:17:03;14.95;;;7.30;;
81150;SDS011;70629;-26.026;27.976;2023-06-22T12:19:32;17.50;;;9.00;;
81150;SDS011;70629;-26.026;27.976;2023-06-22T12:22:01;14.88;;;7.90;;
81150;SDS011;70629;-26.026;27.976;2023-06-22T12:24:31;13.20;;;7.78;;
81150;SDS011;70629;-26.026;27.976;2023-06-22T12:27:00;10.43;;;7.57;;
81150;SDS011;70629;-26.026;27.976;2023-06-22T12:29:31;13.63;;;9.02;;
81150;SDS011;70629;-26.026;27.976;2023-06-22T12:32:01;13.40;;;8.38;;
81150;SDS011;70629;-26.026;27.976;2023-06-22T12:34:31;17.38;;;7.57;;
81150;SDS011;70629;-26.026;27.976;2023-06-22T12:37:01;16.45;;;10.07;;
81150;SDS011;70629;-26.026;27.976;2023-06-22T12:39:30;13.07;;;8.90;;
81150;SDS011;70629;-26.026;27.976;2023-06-22T12:42:01;13.85;;;8.57;;
81150;SDS011;70629;-26.026;27.976;2023-06-22T12:44:30;16.38;;;9.95;;
81150;SDS011;70629;-26.026;27.976;2023-06-22T12:47:00;14.35;;;9.65;;
81150;SDS011;70629;-26.026;27.976;2023-06-22T12:49:30;20.38;;;9.57;;
81150;SDS011;70629;-26.026;27.976;2023-06-22T12:51:59;18.05;;;10.07;;
81150;SDS011;70629;-26.026;27.976;2023-06-22T12:54:29;11.70;;;8.40;;
81150;SDS011;70629;-26.026;27.976;2023-06-22T12:57:09;16.17;;;8.45;;
81150;SDS011;70629;-26.026;27.976;2023-06-22T12:59:38;11.60;;;8.55;;
81150;SDS011;70629;-26.026;27.976;2023-06-22T13:02:10;12.85;;;8.13;;
81150;SDS011;70629;-26.026;27.976;2023-06-22T13:04:40;16.83;;;10.40;;
81150;SDS011;70629;-26.026;27.976;2023-06-22T13:07:13;14.35;;;9.27;;
81150;SDS011;70629;-26.026;27.976;2023-06-22T13:09:50;19.48;;;11.80;;
81150;SDS011;70629;-26.026;27.976;2023-06-22T13:12:26;13.10;;;8.70;;
81150;SDS011;70629;-26.026;27.976;2023-06-22T13:14:56;13.93;;;7.70;;
81150;SDS011;70629;-26.026;27.976;2023-06-22T13:17:25;12.93;;;7.18;;
81150;SDS011;70629;-26.026;27.976;2023-06-22T13:19:54;11.48;;;6.95;;
81150;SDS011;70629;-26.026;27.976;2023-06-22T13:22:31;19.05;;;10.98;;
81150;SDS011;70629;-26.026;27.976;2023-06-22T13:25:02;14.88;;;10.40;;
81150;SDS011;70629;-26.026;27.976;2023-06-22T13:27:31;12.60;;;8.32;;
81150;SDS011;70629;-26.026;27.976;2023-06-22T13:30:01;13.45;;;8.07;;
81150;SDS011;70629;-26.026;27.976;2023-06-22T13:32:30;14.15;;;7.13;;
81150;SDS011;70629;-26.026;27.976;2023-06-22T13:35:01;10.63;;;7.07;;
81150;SDS011;70629;-26.026;27.976;2023-06-22T13:37:31;9.95;;;6.03;;
81150;SDS011;70629;-26.026;27.976;2023-06-22T13:40:00;10.35;;;6.28;;
81150;SDS011;70629;-26.026;27.976;2023-06-22T13:42:32;14.52;;;7.43;;
81150;SDS011;70629;-26.026;27.976;2023-06-22T13:45:02;12.55;;;6.82;;
81150;SDS011;70629;-26.026;27.976;2023-06-22T13:47:35;13.57;;;6.32;;
81150;SDS011;70629;-26.026;27.976;2023-06-22T13:50:05;9.35;;;5.80;;
81150;SDS011;70629;-26.026;27.976;2023-06-22T13:52:34;10.93;;;5.72;;
81150;SDS011;70629;-26.026;27.976;2023-06-22T13:55:04;12.00;;;6.30;;
81150;SDS011;70629;-26.026;27.976;2023-06-22T13:57:35;11.50;;;6.70;;
81150;SDS011;70629;-26.026;27.976;2023-06-22T14:00:06;11.75;;;6.47;;
81150;SDS011;70629;-26.026;27.976;2023-06-22T14:02:36;8.82;;;5.70;;
81150;SDS011;70629;-26.026;27.976;2023-06-22T14:05:08;10.63;;;6.47;;
81150;SDS011;70629;-26.026;27.976;2023-06-22T14:07:39;10.80;;;6.90;;
81150;SDS011;70629;-26.026;27.976;2023-06-22T14:10:08;12.65;;;7.40;;
81150;SDS011;70629;-26.026;27.976;2023-06-22T14:12:37;12.98;;;7.47;;
81150;SDS011;70629;-26.026;27.976;2023-06-22T14:15:07;22.52;;;7.53;;
81150;SDS011;70629;-26.026;27.976;2023-06-22T14:17:36;8.63;;;5.88;;
81150;SDS011;70629;-26.026;27.976;2023-06-22T14:20:06;13.50;;;7.10;;
81150;SDS011;70629;-26.026;27.976;2023-06-22T14:22:36;8.63;;;6.60;;
81150;SDS011;70629;-26.026;27.976;2023-06-22T14:25:05;10.18;;;6.00;;
81150;SDS011;70629;-26.026;27.976;2023-06-22T14:27:35;10.52;;;6.43;;
81150;SDS011;70629;-26.026;27.976;2023-06-22T14:30:04;17.63;;;6.97;;
81150;SDS011;70629;-26.026;27.976;2023-06-22T14:32:34;18.30;;;7.93;;